Time;durP1;ratioP1;P1;durP2;ratioP2;P2;SDS_P1;SDS_P2;PMS_P1;PMS_P2;Temp;Humidity;BMP_temperature;BMP_pressure;BME280_temperature;BME280_humidity;BME280_pressure;Samples;Min_cycle;Max_cycle;Signal;HPM_P1;HPM_P2
2022/05/29 00:00:50;;;;;;;4.50;4.20;;;;;;;5.42;100.00;96807.88;4967070;28;20848;-47
2022/05/29 00:03:18;;;;;;;4.10;3.70;;;;;;;5.33;100.00;96806.22;4967932;28;20210;-50
2022/05/29 00:05:47;;;;;;;4.17;3.87;;;;;;;5.32;100.00;96805.44;4928360;28;20232;-53
2022/05/29 00:08:19;;;;;;;4.13;3.77;;;;;;;5.36;100.00;96793.63;4968346;28;20731;-47
2022/05/29 00:10:47;;;;;;;3.83;3.50;;;;;;;5.41;100.00;96793.09;4963653;28;20231;-50
2022/05/29 00:13:15;;;;;;;4.37;3.97;;;;;;;5.42;100.00;96786.88;4953100;28;20839;-49
2022/05/29 00:15:43;;;;;;;3.87;3.67;;;;;;;5.37;100.00;96781.28;4967468;28;20206;-49
2022/05/29 00:18:13;;;;;;;4.60;4.20;;;;;;;5.42;100.00;96779.00;4971247;28;20959;-47
2022/05/29 00:20:41;;;;;;;3.33;3.13;;;;;;;5.29;100.00;96783.91;4947308;28;20212;-48
2022/05/29 00:23:09;;;;;;;3.60;3.30;;;;;;;5.23;100.00;96782.72;4952293;28;20217;-46
2022/05/29 00:26:06;;;;;;;3.57;3.23;;;;;;;5.35;100.00;96780.63;4955593;28;20205;-55
2022/05/29 00:28:34;;;;;;;3.47;3.27;;;;;;;5.22;100.00;96781.06;4953341;28;20237;-49
2022/05/29 00:31:02;;;;;;;3.23;3.03;;;;;;;5.27;100.00;96778.78;4966187;28;20410;-50
2022/05/29 00:33:32;;;;;;;3.27;3.00;;;;;;;5.31;100.00;96776.69;4962628;28;20575;-49
2022/05/29 00:36:00;;;;;;;4.07;3.30;;;;;;;5.21;100.00;96775.00;4966709;28;20501;-49
2022/05/29 00:38:29;;;;;;;3.13;2.93;;;;;;;5.17;100.00;96767.59;4915680;28;20214;-48
2022/05/29 00:41:00;;;;;;;4.03;3.23;;;;;;;5.19;100.00;96776.16;4965840;28;20565;-51
2022/05/29 00:43:28;;;;;;;3.50;3.30;;;;;;;5.19;100.00;96766.47;4966012;28;20309;-52
2022/05/29 00:45:59;;;;;;;3.70;3.50;;;;;;;5.15;100.00;96780.91;4945810;28;20315;-52
2022/05/29 00:48:27;;;;;;;3.40;3.10;;;;;;;5.12;100.00;96778.59;4966492;28;20249;-48
2022/05/29 00:50:59;;;;;;;3.20;3.00;;;;;;;5.00;100.00;96780.69;4963205;28;20824;-46
2022/05/29 00:53:28;;;;;;;3.10;3.00;;;;;;;5.06;100.00;96776.59;4890689;28;21087;-46
2022/05/29 00:56:00;;;;;;;3.13;2.87;;;;;;;5.08;100.00;96777.25;4966422;28;20252;-49
2022/05/29 00:58:28;;;;;;;3.67;3.17;;;;;;;4.98;100.00;96771.31;4961310;28;20321;-48
2022/05/29 01:00:57;;;;;;;6.10;3.30;;;;;;;4.96;100.00;96771.50;4946722;28;20357;-49
2022/05/29 01:03:25;;;;;;;2.97;2.83;;;;;;;4.89;100.00;96773.09;4963090;28;20478;-51
2022/05/29 01:05:53;;;;;;;3.17;2.97;;;;;;;4.78;100.00;96768.97;4965509;28;20224;-50
2022/05/29 01:08:26;;;;;;;3.40;3.20;;;;;;;4.79;100.00;96765.34;4925044;28;20230;-48
2022/05/29 01:11:07;;;;;;;3.67;3.17;;;;;;;4.75;100.00;96777.16;4967692;28;20220;-48
2022/05/29 01:13:44;;;;;;;4.23;3.40;;;;;;;4.74;100.00;96771.06;4967620;28;20487;-50
2022/05/29 01:16:19;;;;;;;3.80;3.50;;;;;;;4.73;100.00;96763.34;4953981;28;20233;-50
2022/05/29 01:18:54;;;;;;;3.63;3.37;;;;;;;4.67;100.00;96767.44;4965430;28;20205;-47
2022/05/29 01:21:40;;;;;;;3.37;3.07;;;;;;;4.69;100.00;96759.38;4939150;28;20524;-46
2022/05/29 01:24:34;;;;;;;3.30;3.10;;;;;;;4.73;100.00;96760.72;4926175;28;20739;-51
2022/05/29 01:27:15;;;;;;;3.30;3.00;;;;;;;4.71;100.00;96754.78;4950954;28;20867;-50
2022/05/29 01:29:52;;;;;;;3.00;2.80;;;;;;;4.71;100.00;96754.78;4966929;28;20313;-49
2022/05/29 01:32:27;;;;;;;3.13;2.87;;;;;;;4.66;100.00;96743.94;4946399;28;20213;-47
2022/05/29 01:35:00;;;;;;;4.00;3.03;;;;;;;4.69;100.00;96751.50;4967690;28;20762;-46
2022/05/29 01:37:31;;;;;;;4.27;3.57;;;;;;;4.56;100.00;96758.03;4934398;28;20316;-49
2022/05/29 01:40:06;;;;;;;3.30;2.97;;;;;;;4.56;100.00;96750.16;4923287;28;20213;-47
2022/05/29 01:42:37;;;;;;;2.93;2.83;;;;;;;4.49;100.00;96741.25;4941980;28;20322;-49
2022/05/29 01:45:12;;;;;;;3.27;3.07;;;;;;;4.52;100.00;96745.34;4964917;28;20772;-48
2022/05/29 01:47:43;;;;;;;3.20;2.93;;;;;;;4.48;100.00;96745.69;4946751;28;20226;-49
2022/05/29 01:50:14;;;;;;;3.37;3.07;;;;;;;4.39;100.00;96738.75;4963888;28;20226;-47
2022/05/29 01:52:46;;;;;;;3.07;2.93;;;;;;;4.58;100.00;96737.69;4971819;28;20292;-49
2022/05/29 01:55:18;;;;;;;3.53;3.33;;;;;;;4.48;100.00;96734.38;4928619;28;21341;-51
2022/05/29 01:57:50;;;;;;;3.30;3.10;;;;;;;4.33;100.00;96731.50;4970707;28;20444;-44
2022/05/29 02:00:21;;;;;;;3.20;3.00;;;;;;;4.39;100.00;96728.25;4964027;28;20198;-51
2022/05/29 02:02:52;;;;;;;3.03;2.83;;;;;;;4.35;100.00;96724.31;4947570;28;20317;-47
2022/05/29 02:05:24;;;;;;;3.60;3.40;;;;;;;4.32;100.00;96719.38;4964976;28;20798;-46
2022/05/29 02:07:55;;;;;;;4.63;4.13;;;;;;;4.32;100.00;96711.50;4966061;28;20734;-45
2022/05/29 02:10:28;;;;;;;3.63;3.43;;;;;;;4.37;100.00;96705.78;4920023;28;20230;-48
2022/05/29 02:13:02;;;;;;;3.73;3.53;;;;;;;4.37;100.00;96706.59;4969093;28;20289;-49
2022/05/29 02:15:37;;;;;;;3.60;3.40;;;;;;;4.22;100.00;96695.88;4965630;28;20333;-51
2022/05/29 02:18:11;;;;;;;4.90;4.60;;;;;;;4.23;100.00;96691.47;4958524;28;20549;-48
2022/05/29 02:20:44;;;;;;;3.77;3.57;;;;;;;4.19;100.00;96694.41;4936808;28;20210;-50
2022/05/29 02:23:16;;;;;;;3.87;3.53;;;;;;;4.18;100.00;96689.28;4969819;28;20214;-45
2022/05/29 02:25:44;;;;;;;3.60;3.40;;;;;;;4.10;100.00;96689.25;4891031;28;20619;-46
2022/05/29 02:28:16;;;;;;;3.73;3.43;;;;;;;4.17;100.00;96692.91;4966906;28;20236;-48
2022/05/29 02:30:49;;;;;;;4.00;3.73;;;;;;;4.11;100.00;96678.59;4967702;28;20367;-45
2022/05/29 02:33:20;;;;;;;3.40;3.20;;;;;;;4.00;100.00;96679.72;4970913;28;20810;-45
2022/05/29 02:35:55;;;;;;;3.90;3.60;;;;;;;3.95;100.00;96689.00;4946691;28;20206;-47
2022/05/29 02:38:29;;;;;;;3.50;3.30;;;;;;;3.93;100.00;96677.84;4966635;28;20328;-47
2022/05/29 02:41:00;;;;;;;3.70;3.40;;;;;;;3.95;100.00;96675.91;4901632;28;22176;-45
2022/05/29 02:43:36;;;;;;;4.20;3.90;;;;;;;3.87;100.00;96676.66;4966416;28;20352;-50
2022/05/29 02:46:12;;;;;;;3.87;3.67;;;;;;;3.74;100.00;96666.56;4958983;28;20260;-47
2022/05/29 02:48:44;;;;;;;4.23;3.93;;;;;;;3.75;100.00;96669.06;4967670;28;20213;-46
2022/05/29 02:51:18;;;;;;;3.73;3.43;;;;;;;3.74;100.00;96659.56;4951817;28;20673;-52
2022/05/29 02:53:48;;;;;;;5.17;3.83;;;;;;;3.74;100.00;96651.69;4967168;28;20209;-49
2022/05/29 02:56:16;;;;;;;3.53;3.33;;;;;;;3.74;100.00;96653.47;4897213;28;20749;-49
2022/05/29 02:58:47;;;;;;;3.47;3.27;;;;;;;3.63;100.00;96657.19;4969871;28;20206;-48
2022/05/29 03:01:24;;;;;;;5.05;4.65;;;;;;;3.58;100.00;96647.16;4964164;28;20733;-49
2022/05/29 03:04:17;;;;;;;3.70;3.40;;;;;;;3.65;100.00;96641.31;4949851;28;20221;-50
2022/05/29 03:06:50;;;;;;;4.00;3.80;;;;;;;3.48;100.00;96633.34;4961563;28;20337;-49
2022/05/29 03:09:32;;;;;;;3.40;3.20;;;;;;;3.55;100.00;96638.78;4966765;28;20255;-54
2022/05/29 03:12:00;;;;;;;3.93;3.60;;;;;;;3.52;100.00;96631.22;4890146;28;20228;-50
2022/05/29 03:14:34;;;;;;;3.73;3.50;;;;;;;3.56;100.00;96633.41;4965358;28;20783;-47
2022/05/29 03:17:13;;;;;;;3.63;3.33;;;;;;;3.61;100.00;96633.75;4962315;28;20878;-54
2022/05/29 03:19:47;;;;;;;3.87;3.57;;;;;;;3.52;100.00;96632.06;4947659;28;20315;-51
2022/05/29 03:22:23;;;;;;;4.03;3.73;;;;;;;3.57;100.00;96624.56;4963206;28;20209;-51
2022/05/29 03:24:56;;;;;;;4.73;3.70;;;;;;;3.61;100.00;96628.50;4962511;28;20204;-50
2022/05/29 03:27:30;;;;;;;3.77;3.57;;;;;;;3.57;100.00;96626.34;4896483;28;20241;-53
2022/05/29 03:30:03;;;;;;;4.13;3.87;;;;;;;3.64;100.00;96623.94;4959187;28;20236;-50
2022/05/29 03:32:33;;;;;;;4.90;4.00;;;;;;;3.65;100.00;96615.94;4966263;28;20708;-49
2022/05/29 03:35:16;;;;;;;3.53;3.30;;;;;;;3.64;100.00;96616.91;4942253;28;20837;-54
2022/05/29 03:37:44;;;;;;;4.53;3.93;;;;;;;3.70;100.00;96618.06;4966476;28;20334;-48
2022/05/29 03:40:13;;;;;;;4.33;4.03;;;;;;;3.72;100.00;96618.75;4935727;28;20512;-49
2022/05/29 03:42:41;;;;;;;3.83;3.53;;;;;;;3.70;100.00;96607.59;4893883;28;25001;-53
2022/05/29 03:45:10;;;;;;;3.87;3.57;;;;;;;3.80;100.00;96610.94;4963681;28;20206;-52
2022/05/29 03:47:40;;;;;;;4.20;3.90;;;;;;;3.88;100.00;96613.63;4963011;28;20239;-45
2022/05/29 03:50:12;;;;;;;4.07;3.87;;;;;;;3.90;100.00;96602.97;4965576;28;20731;-49
2022/05/29 03:52:40;;;;;;;4.10;3.80;;;;;;;4.04;100.00;96602.38;4949755;28;20363;-51
2022/05/29 03:55:09;;;;;;;5.70;4.17;;;;;;;4.11;100.00;96599.13;4937459;28;20541;-50
2022/05/29 03:57:38;;;;;;;4.33;3.77;;;;;;;4.28;100.00;96606.06;4944905;28;20829;-50
2022/05/29 04:00:09;;;;;;;4.73;3.70;;;;;;;4.39;100.00;96598.91;4921882;28;20222;-47
2022/05/29 04:02:40;;;;;;;4.20;3.50;;;;;;;4.45;100.00;96601.72;4965068;28;21022;-50
2022/05/29 04:05:09;;;;;;;3.80;3.50;;;;;;;4.60;100.00;96601.91;4963311;28;20584;-48
2022/05/29 04:13:12;;;;;;;3.50;3.27;;;;;;;4.87;100.00;96600.00;4939539;28;20256;-48
2022/05/29 04:15:45;;;;;;;3.63;3.37;;;;;;;4.97;100.00;96599.84;4934982;28;20228;-50
2022/05/29 04:18:16;;;;;;;3.83;3.43;;;;;;;5.16;100.00;96598.72;4966758;28;20210;-49
2022/05/29 04:20:44;;;;;;;4.00;3.53;;;;;;;5.19;100.00;96600.16;4964434;28;20990;-47
2022/05/29 04:23:12;;;;;;;3.00;2.80;;;;;;;5.25;100.00;96593.44;4946019;28;20209;-47
2022/05/29 04:25:43;;;;;;;3.40;3.10;;;;;;;5.32;100.00;96597.06;4948552;28;20510;-50
2022/05/29 04:28:11;;;;;;;2.60;2.50;;;;;;;5.53;100.00;96601.78;4956894;28;20916;-49
2022/05/29 04:30:40;;;;;;;3.30;3.00;;;;;;;5.64;100.00;96600.63;4942615;28;20526;-48
2022/05/29 04:33:07;;;;;;;3.13;2.87;;;;;;;5.80;100.00;96592.69;4968061;28;20739;-45
2022/05/29 04:35:39;;;;;;;3.53;3.33;;;;;;;5.89;100.00;96603.22;4963745;28;20397;-47
2022/05/29 04:38:08;;;;;;;3.13;2.83;;;;;;;5.98;100.00;96596.94;4953052;28;20317;-48
2022/05/29 04:40:37;;;;;;;3.27;3.03;;;;;;;5.96;100.00;96596.28;4965520;28;20313;-48
2022/05/29 04:43:06;;;;;;;3.90;3.40;;;;;;;6.11;100.00;96598.25;4971694;28;20799;-48
2022/05/29 04:45:34;;;;;;;3.80;2.90;;;;;;;6.25;100.00;96594.91;4916174;28;20359;-49
2022/05/29 04:48:02;;;;;;;4.40;4.00;;;;;;;6.27;100.00;96592.94;4968397;28;20897;-48
2022/05/29 04:50:30;;;;;;;2.57;2.37;;;;;;;6.25;100.00;96592.28;4965506;28;20454;-46
2022/05/29 04:53:00;;;;;;;3.20;3.00;;;;;;;6.37;100.00;96588.28;4954492;28;20247;-54
2022/05/29 04:55:28;;;;;;;3.23;2.43;;;;;;;6.40;100.00;96579.19;4969055;28;20461;-49
2022/05/29 04:57:56;;;;;;;2.90;2.80;;;;;;;6.56;100.00;96583.56;4968980;28;20233;-50
2022/05/29 05:00:24;;;;;;;3.20;2.90;;;;;;;6.52;100.00;96574.38;4933752;28;20217;-49
2022/05/29 05:02:52;;;;;;;3.03;2.83;;;;;;;6.48;100.00;96575.72;4973621;28;20202;-54
2022/05/29 05:05:20;;;;;;;4.30;2.83;;;;;;;6.58;100.00;96575.50;4952486;28;20840;-48
2022/05/29 05:07:48;;;;;;;3.03;2.73;;;;;;;6.71;100.00;96581.00;4969672;28;20264;-49
2022/05/29 05:10:18;;;;;;;2.70;2.57;;;;;;;6.71;100.00;96581.00;4954695;28;20212;-46
2022/05/29 05:12:46;;;;;;;2.43;2.30;;;;;;;6.77;100.00;96572.41;4966177;28;21784;-51
2022/05/29 05:15:16;;;;;;;2.90;2.70;;;;;;;6.90;100.00;96573.66;4932870;28;20222;-52
2022/05/29 05:17:44;;;;;;;2.57;2.20;;;;;;;7.03;100.00;96573.88;4963427;28;20537;-46
2022/05/29 05:20:13;;;;;;;2.63;2.50;;;;;;;7.07;100.00;96569.09;4968981;28;20316;-50
2022/05/29 05:22:41;;;;;;;3.73;2.30;;;;;;;7.21;100.00;96576.19;4970329;28;20573;-47
2022/05/29 05:25:12;;;;;;;2.20;2.10;;;;;;;7.27;100.00;96573.84;4956793;28;20251;-47
2022/05/29 05:27:41;;;;;;;2.30;2.10;;;;;;;7.36;100.00;96581.50;4966552;28;20284;-48
2022/05/29 05:30:14;;;;;;;2.83;2.57;;;;;;;7.41;100.00;96581.00;4967668;28;20612;-53
2022/05/29 05:32:42;;;;;;;2.60;2.40;;;;;;;7.37;100.00;96577.88;4951825;28;20501;-48
2022/05/29 05:35:10;;;;;;;3.00;2.23;;;;;;;7.43;100.00;96576.34;4971608;28;20332;-50
2022/05/29 05:37:41;;;;;;;4.70;2.73;;;;;;;7.38;100.00;96576.88;4965355;28;20874;-49
2022/05/29 05:40:12;;;;;;;2.63;2.47;;;;;;;7.78;100.00;96575.84;4953694;28;20228;-50
2022/05/29 05:42:41;;;;;;;2.80;2.60;;;;;;;7.70;100.00;96574.09;4969415;28;21602;-48
2022/05/29 05:45:15;;;;;;;2.57;2.37;;;;;;;7.76;100.00;96578.66;4969172;28;20854;-49
2022/05/29 05:47:43;;;;;;;2.23;2.07;;;;;;;8.05;100.00;96582.28;4954933;28;20487;-48
2022/05/29 05:50:12;;;;;;;2.10;2.00;;;;;;;7.89;100.00;96585.13;4974104;28;20230;-47
2022/05/29 05:52:40;;;;;;;2.80;2.53;;;;;;;7.90;100.00;96582.28;4965677;28;20325;-47
2022/05/29 05:55:11;;;;;;;3.10;2.50;;;;;;;8.20;100.00;96579.66;4957246;28;20751;-46
2022/05/29 05:57:41;;;;;;;2.17;2.07;;;;;;;8.33;100.00;96578.16;4969096;28;20332;-51
2022/05/29 06:00:13;;;;;;;2.40;2.20;;;;;;;8.34;100.00;96564.00;4971605;28;20252;-48
2022/05/29 06:02:41;;;;;;;6.20;2.37;;;;;;;8.39;100.00;96572.97;4932353;28;20240;-44
2022/05/29 06:05:10;;;;;;;1.73;1.63;;;;;;;8.25;100.00;96569.34;4969594;28;20511;-50
2022/05/29 06:07:38;;;;;;;2.80;2.53;;;;;;;8.16;100.00;96569.66;4964675;28;20227;-47
2022/05/29 06:10:06;;;;;;;3.77;2.30;;;;;;;8.10;100.00;96574.66;4956475;28;20665;-49
2022/05/29 06:12:34;;;;;;;2.37;2.13;;;;;;;8.15;100.00;96575.94;4967827;28;20420;-49
2022/05/29 06:15:05;;;;;;;2.20;2.00;;;;;;;8.09;100.00;96573.00;4969125;28;20300;-48
2022/05/29 06:17:33;;;;;;;2.60;2.40;;;;;;;8.22;100.00;96572.38;4928119;28;20233;-48
2022/05/29 06:20:02;;;;;;;3.07;2.17;;;;;;;8.19;100.00;96571.94;4971535;28;20319;-52
2022/05/29 06:22:30;;;;;;;2.30;2.10;;;;;;;8.28;100.00;96577.91;4968534;28;20865;-54
2022/05/29 06:24:58;;;;;;;2.50;2.40;;;;;;;8.31;100.00;96586.28;4967342;28;20217;-55
2022/05/29 06:27:28;;;;;;;2.60;2.40;;;;;;;8.38;100.00;96581.91;4949988;28;20232;-48
2022/05/29 06:29:57;;;;;;;2.33;2.13;;;;;;;8.73;100.00;96580.50;4954873;28;20364;-49
2022/05/29 06:32:26;;;;;;;2.20;2.10;;;;;;;8.97;100.00;96577.50;4931047;28;20323;-48
2022/05/29 06:34:55;;;;;;;2.17;1.97;;;;;;;9.09;100.00;96576.97;4969779;28;20280;-54
2022/05/29 06:37:23;;;;;;;2.50;2.30;;;;;;;9.08;100.00;96575.34;4967896;28;20233;-49
2022/05/29 06:39:57;;;;;;;2.30;1.80;;;;;;;9.14;100.00;96579.06;4969478;28;20705;-50
2022/05/29 06:42:26;;;;;;;1.80;1.70;;;;;;;9.50;100.00;96578.16;4928551;28;20476;-52
2022/05/29 06:44:54;;;;;;;2.47;2.33;;;;;;;9.75;100.00;96575.88;4950520;28;20648;-52
2022/05/29 06:47:22;;;;;;;3.00;2.73;;;;;;;9.82;100.00;96579.38;4968524;28;20817;-51
2022/05/29 06:49:52;;;;;;;3.50;2.20;;;;;;;9.89;100.00;96578.59;4936390;28;20216;-55
2022/05/29 06:52:20;;;;;;;2.53;2.30;;;;;;;9.93;100.00;96582.47;4966512;28;20324;-49
2022/05/29 06:54:48;;;;;;;2.57;2.07;;;;;;;10.13;100.00;96572.84;4954179;28;20240;-53
2022/05/29 06:57:36;;;;;;;3.10;2.00;;;;;;;10.24;100.00;96579.41;4952803;28;20325;-51
2022/05/29 07:08:27;;;;;;;3.10;2.13;;;;;;;10.19;100.00;96576.50;4965555;28;20313;-51
2022/05/29 07:10:56;;;;;;;2.20;2.10;;;;;;;10.24;100.00;96571.47;4947946;28;20708;-50
2022/05/29 07:13:24;;;;;;;5.73;4.63;;;;;;;10.43;100.00;96574.41;4952472;28;20341;-52
2022/05/29 07:15:52;;;;;;;3.57;2.67;;;;;;;10.64;100.00;96570.81;4967102;28;20258;-53
2022/05/29 07:18:20;;;;;;;3.57;2.10;;;;;;;10.77;100.00;96569.22;4968488;28;20201;-52
2022/05/29 07:20:50;;;;;;;2.60;2.20;;;;;;;10.96;100.00;96576.41;4927803;28;21511;-51
2022/05/29 07:23:19;;;;;;;2.17;2.00;;;;;;;11.20;100.00;96566.25;4961728;28;20233;-53
2022/05/29 07:25:47;;;;;;;2.20;1.93;;;;;;;11.55;100.00;96565.19;4960928;28;20206;-49
2022/05/29 07:28:16;;;;;;;3.37;2.23;;;;;;;11.61;100.00;96561.72;4954838;28;20234;-53
2022/05/29 07:30:44;;;;;;;2.47;1.90;;;;;;;11.84;100.00;96565.78;4941364;28;20206;-51
2022/05/29 07:33:12;;;;;;;3.03;1.90;;;;;;;11.99;100.00;96566.34;4966997;28;20568;-52
2022/05/29 07:35:40;;;;;;;2.00;1.77;;;;;;;12.63;100.00;96562.28;4926445;28;20218;-50
2022/05/29 07:38:09;;;;;;;7.93;2.20;;;;;;;12.62;100.00;96566.75;4963598;28;20643;-50
2022/05/29 07:40:38;;;;;;;2.60;1.90;;;;;;;12.97;100.00;96563.72;4964888;28;20194;-52
2022/05/29 07:43:22;;;;;;;2.23;1.77;;;;;;;13.37;100.00;96567.09;4969807;28;20878;-49
2022/05/29 07:45:56;;;;;;;3.03;1.73;;;;;;;13.39;100.00;96571.19;4966703;28;20593;-54
2022/05/29 07:48:26;;;;;;;1.73;1.63;;;;;;;13.80;100.00;96565.56;4960776;28;20638;-52
2022/05/29 07:50:55;;;;;;;2.20;1.70;;;;;;;14.30;98.43;96572.63;4966003;28;20209;-48
2022/05/29 07:53:24;;;;;;;2.33;2.13;;;;;;;14.39;99.61;96568.59;4929331;28;20233;-49
2022/05/29 07:55:52;;;;;;;1.67;1.57;;;;;;;14.81;91.63;96569.75;4950896;28;20633;-55
2022/05/29 07:58:20;;;;;;;2.00;1.80;;;;;;;14.70;90.72;96573.97;4967184;28;20304;-49
2022/05/29 08:00:49;;;;;;;1.73;1.63;;;;;;;14.93;86.97;96561.78;4939865;28;20220;-51
2022/05/29 08:03:17;;;;;;;2.50;1.60;;;;;;;15.16;87.77;96567.22;4966879;28;20201;-49
2022/05/29 08:05:45;;;;;;;1.73;1.53;;;;;;;15.31;84.41;96571.28;4966431;28;20205;-52
2022/05/29 08:08:13;;;;;;;2.37;2.17;;;;;;;15.52;82.19;96563.75;4933633;28;20216;-49
2022/05/29 08:10:44;;;;;;;1.70;1.67;;;;;;;15.47;79.25;96561.81;4964095;28;20215;-50
2022/05/29 08:13:12;;;;;;;4.17;2.03;;;;;;;15.59;74.71;96564.47;4962351;28;20232;-51
2022/05/29 08:15:40;;;;;;;1.83;1.73;;;;;;;15.71;80.98;96559.94;4952961;28;20205;-49
2022/05/29 08:18:09;;;;;;;1.67;1.57;;;;;;;15.75;82.74;96562.97;4964882;28;20788;-48
2022/05/29 08:20:38;;;;;;;1.30;1.27;;;;;;;15.44;78.30;96554.25;4946880;28;20297;-48
2022/05/29 08:23:06;;;;;;;1.40;1.30;;;;;;;15.21;84.99;96563.84;4928132;28;20344;-50
2022/05/29 08:31:07;;;;;;;2.33;2.00;;;;;;;15.98;76.07;96556.84;4931057;28;20224;-48
2022/05/29 08:33:37;;;;;;;3.47;1.97;;;;;;;15.96;67.73;96560.78;4946214;28;21031;-49
2022/05/29 08:36:07;;;;;;;2.60;1.83;;;;;;;15.89;73.33;96568.91;4963103;28;20413;-45
2022/05/29 08:38:36;;;;;;;1.70;1.60;;;;;;;16.32;73.95;96559.69;4953382;28;20656;-48
2022/05/29 08:41:06;;;;;;;3.50;1.50;;;;;;;16.31;76.21;96559.91;4928801;28;20210;-49
2022/05/29 08:43:37;;;;;;;1.93;1.70;;;;;;;16.77;68.68;96560.81;4957789;28;20795;-49
2022/05/29 08:46:10;;;;;;;1.63;1.47;;;;;;;17.07;69.45;96558.97;4950505;28;20209;-48
2022/05/29 08:48:38;;;;;;;2.00;1.77;;;;;;;17.27;64.29;96555.00;4954298;28;20216;-50
2022/05/29 08:51:18;;;;;;;2.67;2.13;;;;;;;17.33;64.09;96548.69;4957941;28;20336;-51
2022/05/29 08:53:52;;;;;;;1.83;1.50;;;;;;;17.59;68.10;96546.41;4928111;28;20335;-51
2022/05/29 08:56:27;;;;;;;1.90;1.47;;;;;;;17.41;53.28;96537.56;4968333;28;20229;-49
2022/05/29 08:59:05;;;;;;;1.00;1.00;;;;;;;17.94;42.83;96542.63;4944512;28;21286;-47
2022/05/29 09:01:42;;;;;;;2.03;1.20;;;;;;;18.30;45.87;96540.44;4953004;28;20220;-48
2022/05/29 09:04:14;;;;;;;1.37;1.20;;;;;;;17.84;44.20;96535.25;4939699;28;20214;-48
2022/05/29 09:06:45;;;;;;;1.60;1.20;;;;;;;17.77;44.31;96538.09;4965460;28;20226;-50
2022/05/29 09:09:18;;;;;;;1.53;1.33;;;;;;;17.98;41.36;96542.94;4906798;28;20466;-51
2022/05/29 09:11:48;;;;;;;1.00;1.00;;;;;;;17.88;38.08;96528.34;4965920;28;20313;-50
2022/05/29 09:14:25;;;;;;;1.87;1.00;;;;;;;18.48;38.14;96519.72;4945122;28;20315;-49
2022/05/29 09:16:56;;;;;;;2.37;1.10;;;;;;;18.14;37.13;96523.34;4939047;28;21132;-50
2022/05/29 09:19:34;;;;;;;1.93;1.37;;;;;;;18.08;35.62;96519.00;4966625;28;20372;-49
2022/05/29 09:22:05;;;;;;;1.37;1.23;;;;;;;18.28;32.34;96515.75;4962787;28;20316;-53
2022/05/29 09:24:44;;;;;;;1.00;1.00;;;;;;;17.57;35.34;96513.72;4924995;28;20332;-47
2022/05/29 09:27:12;;;;;;;2.57;1.43;;;;;;;17.01;36.78;96509.91;4967403;28;20268;-51
2022/05/29 09:29:41;;;;;;;1.67;1.37;;;;;;;16.48;36.82;96506.50;4969552;28;20802;-48
2022/05/29 09:32:15;;;;;;;1.37;1.10;;;;;;;16.84;38.90;96504.50;4971097;28;20238;-56
2022/05/29 09:34:44;;;;;;;1.93;1.13;;;;;;;17.53;37.01;96501.88;4951056;28;20325;-55
2022/05/29 09:37:22;;;;;;;1.80;1.20;;;;;;;17.90;34.87;96507.47;4955658;28;20332;-47
2022/05/29 09:39:54;;;;;;;1.57;1.17;;;;;;;17.62;34.28;96501.22;4952944;28;20229;-47
2022/05/29 09:42:24;;;;;;;3.20;1.00;;;;;;;17.79;34.30;96495.00;4931368;28;20301;-45
2022/05/29 09:45:16;;;;;;;1.53;1.00;;;;;;;17.93;34.20;96493.56;4969368;28;20301;-46
2022/05/29 09:50:49;;;;;;;1.97;1.10;;;;;;;17.97;32.72;96480.50;4960400;28;20321;-50
2022/05/29 09:53:19;;;;;;;1.33;1.20;;;;;;;17.02;35.08;96475.91;4969645;28;20257;-48
2022/05/29 09:55:57;;;;;;;2.27;1.40;;;;;;;17.09;35.54;96478.44;4957634;28;20511;-46
2022/05/29 09:58:30;;;;;;;1.43;0.90;;;;;;;17.10;35.64;96470.19;4925822;28;20324;-47
2022/05/29 10:01:03;;;;;;;1.10;1.10;;;;;;;16.92;36.95;96481.88;4967608;28;20600;-45
2022/05/29 10:03:41;;;;;;;1.13;1.07;;;;;;;16.71;36.16;96465.47;4963943;28;20205;-47
2022/05/29 10:06:15;;;;;;;3.20;1.30;;;;;;;16.41;36.97;96479.91;4953818;28;20239;-46
2022/05/29 10:08:44;;;;;;;1.43;1.23;;;;;;;16.69;37.33;96474.81;4957371;28;20303;-46
2022/05/29 10:11:15;;;;;;;1.40;1.30;;;;;;;16.65;36.44;96461.09;4970168;28;20709;-46
2022/05/29 10:13:44;;;;;;;1.07;0.97;;;;;;;17.01;36.94;96461.72;4924678;28;20233;-51
2022/05/29 10:16:14;;;;;;;1.30;1.20;;;;;;;17.11;36.36;96461.09;4967933;28;20589;-51
2022/05/29 10:18:43;;;;;;;1.50;1.40;;;;;;;17.04;34.67;96461.25;4965208;28;20427;-49
2022/05/29 10:21:17;;;;;;;0.80;0.80;;;;;;;17.33;36.45;96468.38;4961051;28;20241;-51
2022/05/29 10:23:50;;;;;;;2.00;1.47;;;;;;;18.11;37.20;96469.41;4949717;28;20298;-50
2022/05/29 10:26:32;;;;;;;0.70;0.70;;;;;;;18.16;37.12;96469.47;4939776;28;20696;-52
2022/05/29 10:29:00;;;;;;;1.47;1.27;;;;;;;18.37;34.66;96482.06;4931886;28;20371;-52
2022/05/29 10:31:35;;;;;;;2.03;1.50;;;;;;;17.92;37.65;96481.22;4957745;28;20607;-48
2022/05/29 10:34:07;;;;;;;1.53;1.43;;;;;;;17.33;44.17;96479.91;4970865;28;20264;-50
2022/05/29 10:36:36;;;;;;;2.27;1.60;;;;;;;16.95;44.44;96477.91;4953533;28;20342;-46
2022/05/29 10:39:09;;;;;;;1.93;1.70;;;;;;;16.70;45.93;96485.25;4956681;28;20214;-52
2022/05/29 10:41:39;;;;;;;1.73;1.47;;;;;;;16.14;49.99;96490.34;4957026;28;20914;-54
2022/05/29 10:44:08;;;;;;;1.47;1.37;;;;;;;16.00;49.48;96492.47;4933027;28;20209;-50
2022/05/29 10:46:50;;;;;;;1.10;0.93;;;;;;;15.30;43.04;96481.59;4966751;28;20407;-53
2022/05/29 10:49:24;;;;;;;2.73;1.10;;;;;;;14.65;43.52;96483.19;4940878;28;20298;-50
2022/05/29 10:52:17;;;;;;;1.53;1.03;;;;;;;14.60;44.80;96489.22;4968483;28;20296;-51
2022/05/29 10:55:01;;;;;;;0.90;0.90;;;;;;;14.53;43.72;96485.81;4963744;28;20320;-49
2022/05/29 10:57:43;;;;;;;0.83;0.83;;;;;;;14.02;45.99;96496.69;4953341;28;20831;-50
2022/05/29 11:00:28;;;;;;;3.30;3.10;;;;;;;13.97;45.17;96496.56;4924923;28;20565;-51
2022/05/29 11:03:37;;;;;;;2.07;1.97;;;;;;;13.78;44.91;96490.41;4969425;28;20209;-49
2022/05/29 11:06:33;;;;;;;1.33;1.10;;;;;;;13.50;48.29;96495.19;4967185;28;20245;-48
2022/05/29 11:09:11;;;;;;;1.57;1.30;;;;;;;13.30;52.02;96498.81;4968636;28;20205;-48
2022/05/29 11:11:50;;;;;;;0.83;0.83;;;;;;;13.34;51.76;96493.88;4958774;28;20568;-52
2022/05/29 11:14:36;;;;;;;1.00;1.00;;;;;;;13.43;56.13;96499.75;4932173;28;20231;-51
2022/05/29 11:17:12;;;;;;;1.70;1.60;;;;;;;13.15;96.98;96504.47;4969844;28;20225;-52
2022/05/29 11:20:13;;;;;;;3.03;2.33;;;;;;;11.06;100.00;96528.28;4968106;28;20658;-52
2022/05/29 11:22:52;;;;;;;4.17;2.43;;;;;;;8.90;100.00;96526.41;4969523;28;20212;-52
2022/05/29 11:25:33;;;;;;;2.53;1.83;;;;;;;8.71;100.00;96516.47;4961633;28;20228;-56
2022/05/29 11:28:15;;;;;;;2.33;2.07;;;;;;;9.27;100.00;96513.09;4959264;28;20296;-55
2022/05/29 11:30:56;;;;;;;2.17;2.07;;;;;;;9.53;100.00;96523.03;4930358;28;20365;-54
2022/05/29 11:33:39;;;;;;;2.23;1.83;;;;;;;9.39;100.00;96516.81;4965696;28;20301;-54
2022/05/29 11:36:17;;;;;;;2.20;2.03;;;;;;;9.35;100.00;96520.06;4969110;28;20208;-54
2022/05/29 11:39:19;;;;;;;2.27;2.10;;;;;;;9.48;100.00;96514.84;4966133;28;20213;-51
2022/05/29 11:41:52;;;;;;;3.40;3.10;;;;;;;9.60;100.00;96523.06;4969265;28;20275;-52
2022/05/29 11:44:24;;;;;;;2.60;2.33;;;;;;;9.80;100.00;96531.13;4954803;28;20265;-56
2022/05/29 11:52:35;;;;;;;3.23;2.03;;;;;;;9.78;100.00;96517.28;4963538;28;20513;-52
2022/05/29 11:55:06;;;;;;;3.43;2.77;;;;;;;10.59;100.00;96524.72;4969064;28;20348;-54
2022/05/29 11:57:40;;;;;;;3.17;2.90;;;;;;;11.16;100.00;96527.88;4967349;28;20249;-51
2022/05/29 12:00:21;;;;;;;2.70;2.50;;;;;;;11.67;100.00;96523.75;4957124;28;20605;-56
2022/05/29 12:02:54;;;;;;;3.00;2.80;;;;;;;11.96;100.00;96531.47;4932666;28;20220;-51
2022/05/29 12:05:30;;;;;;;2.60;2.40;;;;;;;12.21;100.00;96544.06;4963910;28;20553;-51
2022/05/29 12:08:05;;;;;;;1.87;1.77;;;;;;;11.38;100.00;96540.94;4963955;28;20229;-48
2022/05/29 12:10:38;;;;;;;2.27;2.07;;;;;;;12.18;100.00;96539.16;4964143;28;20309;-51
2022/05/29 12:13:11;;;;;;;2.30;2.13;;;;;;;12.29;100.00;96539.34;4966638;28;20308;-54
2022/05/29 12:15:40;;;;;;;1.77;1.67;;;;;;;11.98;100.00;96532.88;4955383;28;20340;-53
2022/05/29 12:18:11;;;;;;;1.80;1.63;;;;;;;12.61;100.00;96532.44;4929840;28;20241;-51
2022/05/29 12:20:43;;;;;;;3.07;2.20;;;;;;;12.39;100.00;96533.56;4964420;28;20896;-52
2022/05/29 12:23:28;;;;;;;1.73;1.67;;;;;;;12.91;100.00;96521.22;4965918;28;20228;-54